This is the latest recevied weather packets stored in our database for station/object W8LMG. If no packets are shown the sender has not sent any weather packets the latest 10 day(s).
| Time | Temp. | Humidity | Pressure | Rain* | Wind** | Luminosity | Snow |
|---|---|---|---|---|---|---|---|
| 1778096082 | 18.89° C | 88% | 1010.4 hPa | 0 mm | - | 464 W/m² | - |
| 1778095778 | 18.33° C | 89% | 1010.5 hPa | 0 mm | - | 315 W/m² | - |
| 1778095476 | 18.89° C | 86% | 1010.3 hPa | 0 mm | - | 161 W/m² | - |
| 1778095172 | 18.89° C | 84% | 1010.4 hPa | 0 mm | - | 114 W/m² | - |
| 1778094869 | 18.89° C | 84% | 1010.2 hPa | 0 mm | - | 152 W/m² | - |
| 1778094565 | 18.89° C | 84% | 1010.3 hPa | 0 mm | - | 193 W/m² | - |
| 1778094262 | 18.89° C | 84% | 1010.3 hPa | 0 mm | - | 151 W/m² | - |
| 1778093959 | 18.89° C | 83% | 1010.1 hPa | 0 mm | - | 111 W/m² | - |
| 1778093656 | 18.89° C | 83% | 1010.1 hPa | 0 mm | - | 101 W/m² | - |
| 1778093353 | 18.89° C | 84% | 1010.1 hPa | 0 mm | - | 132 W/m² | - |
| 1778093050 | 19.44° C | 84% | 1010.1 hPa | 0 mm | - | 178 W/m² | - |
| 1778092748 | 19.44° C | 85% | 1010 hPa | 0 mm | - | 223 W/m² | - |
| 1778092443 | 19.44° C | 84% | 1010.2 hPa | 0 mm | - | 147 W/m² | - |
| 1778092140 | 18.89° C | 85% | 1010 hPa | 0 mm | - | 269 W/m² | - |
| 1778091837 | 18.33° C | 89% | 1010 hPa | 0 mm | - | 337 W/m² | - |
| 1778091534 | 18.33° C | 90% | 1010.2 hPa | 0 mm | - | 218 W/m² | - |
| 1778091232 | 17.78° C | 90% | 1010.4 hPa | 0 mm | - | 165 W/m² | - |
| 1778090929 | 17.78° C | 91% | 1010.3 hPa | 0 mm | - | 171 W/m² | - |
| 1778090625 | 17.22° C | 92% | 1010.6 hPa | 0 mm | - | 149 W/m² | - |
| 1778090322 | 17.22° C | 93% | 1010.5 hPa | 0 mm | - | 155 W/m² | - |
| 1778090018 | 17.22° C | 92% | 1010.5 hPa | 0 mm | - | 129 W/m² | - |
| 1778089716 | 16.67° C | 94% | 1010.6 hPa | 0 mm | - | 175 W/m² | - |
| 1778089413 | 16.67° C | 95% | 1010.7 hPa | 0 mm | - | 131 W/m² | - |
| 1778089111 | 16.67° C | 95% | 1010.7 hPa | 0 mm | - | 86 W/m² | - |
| 1778088807 | 16.11° C | 95% | 1010.6 hPa | 0 mm | - | 93 W/m² | - |
* Rain latest hour (hover to see other rain measurements)
** Current wind speed in m/s (hover to see current wind gust speed)